Terminal Aerodrome Forecast
Issued by NWS

Home | Current Version | Previous Version | Text Only | Print | Product List | Glossary On
Versions: 1 2 3 4 5 6 7 8 9 10 11 12 13
000
FTUS42 TJSJ 292320
TAFJSJ
TAF
TJSJ 292320Z 3000/3024 15008KT P6SM FEW030 SCT100
     FM300600 00000KT P6SM VCSH SCT025 SCT040
     FM301400 07013KT P6SM FEW030 SCT060
     FM302330 11005KT P6SM FEW025 SCT060 SCT120=

USA.gov is the U.S. government's official web portal to all federal, state and local government web resources and services.